Time;durP1;ratioP1;P1;durP2;ratioP2;P2;SDS_P1;SDS_P2;PMS_P1;PMS_P2;Temp;Humidity;BMP_temperature;BMP_pressure;BME280_temperature;BME280_humidity;BME280_pressure;Samples;Min_cycle;Max_cycle;Signal;HPM_P1;HPM_P2
2022/10/16 00:01:34;;;;;;;;;16.60;16.60;;;;;19.26;51.71;98934.53;6229767;28;96241;-66
2022/10/16 00:04:38;;;;;;;;;18.00;17.00;;;;;19.25;50.62;98927.44;6236840;28;96296;-66
2022/10/16 00:07:42;;;;;;;;;17.00;16.00;;;;;19.14;51.64;98915.72;6228453;28;96978;-66
2022/10/16 00:10:46;;;;;;;;;17.00;15.00;;;;;19.27;51.84;98936.16;6227736;28;96392;-66
2022/10/16 00:13:51;;;;;;;;;18.00;16.00;;;;;19.28;51.69;98937.81;6231563;28;96464;-66
2022/10/16 00:16:55;;;;;;;;;17.60;16.60;;;;;19.28;51.81;98943.28;6208948;28;96502;-66
2022/10/16 00:19:58;;;;;;;;;17.00;16.00;;;;;19.29;51.65;98947.66;6208741;28;96444;-66
2022/10/16 00:23:22;;;;;;;;;18.40;18.40;;;;;19.28;51.06;98949.56;6226664;28;98228;-66
2022/10/16 00:26:26;;;;;;;;;17.80;16.80;;;;;19.28;51.67;98946.84;6240100;28;96220;-66
2022/10/16 00:29:30;;;;;;;;;17.00;17.00;;;;;19.31;51.24;98948.19;6233917;28;96289;-66
2022/10/16 00:32:33;;;;;;;;;18.25;17.00;;;;;19.30;51.15;98955.56;6191275;28;98614;-66
2022/10/16 00:35:36;;;;;;;;;17.80;16.80;;;;;19.35;51.05;98960.22;6211193;28;99014;-65
2022/10/16 00:38:41;;;;;;;;;15.60;15.60;;;;;19.36;51.04;98954.47;6225404;28;97522;-66
2022/10/16 00:41:44;;;;;;;;;19.00;16.20;;;;;19.38;50.94;98960.50;6227048;28;96285;-66
2022/10/16 00:44:52;;;;;;;;;20.00;18.40;;;;;19.38;51.33;98959.66;6228864;28;96328;-66
2022/10/16 00:47:57;;;;;;;;;19.80;19.80;;;;;19.33;50.00;98963.22;6227157;28;96256;-66
2022/10/16 00:51:00;;;;;;;;;19.50;19.00;;;;;19.30;51.13;98971.19;6227571;28;97630;-66
2022/10/16 00:54:09;;;;;;;;;18.75;18.75;;;;;19.27;51.97;98978.00;6208838;28;96808;-66
2022/10/16 00:57:12;;;;;;;;;18.20;17.80;;;;;19.26;52.65;98976.34;6228390;28;96475;-66
2022/10/16 01:00:20;;;;;;;;;18.00;16.00;;;;;19.24;53.14;98977.75;6240945;28;96195;-66
2022/10/16 01:03:27;;;;;;;;;16.00;15.00;;;;;19.15;54.05;98980.22;6228264;28;96439;-65
2022/10/16 01:06:41;;;;;;;;;16.00;15.00;;;;;19.11;53.96;98981.03;6227103;28;96410;-66
2022/10/16 01:09:59;;;;;;;;;15.50;14.50;;;;;19.03;54.44;98975.03;6235609;28;96395;-66
2022/10/16 01:13:07;;;;;;;;;15.00;14.00;;;;;18.88;54.47;98947.72;6226892;28;96986;-66
2022/10/16 01:16:16;;;;;;;;;16.00;16.00;;;;;19.04;54.35;98964.91;6207421;28;96336;-65
2022/10/16 01:19:33;;;;;;;;;18.60;17.00;;;;;19.06;54.91;98970.91;6192205;28;97185;-66
2022/10/16 01:22:49;;;;;;;;;18.00;16.60;;;;;19.10;55.29;98971.19;6226705;28;96306;-66
2022/10/16 01:26:11;;;;;;;;;19.00;18.00;;;;;19.00;55.30;98967.38;6210021;28;97267;-66
2022/10/16 01:29:20;;;;;;;;;17.25;16.25;;;;;19.08;55.18;98967.91;6215401;28;98489;-66
2022/10/16 01:32:31;;;;;;;;;16.00;15.40;;;;;19.08;54.73;98987.03;6210233;28;96672;-66
2022/10/16 01:35:39;;;;;;;;;20.00;18.40;;;;;19.08;54.74;98982.41;6225065;28;96389;-66
2022/10/16 01:38:48;;;;;;;;;16.00;16.00;;;;;19.11;54.78;98986.50;6224907;28;96362;-65
2022/10/16 01:41:59;;;;;;;;;18.00;17.00;;;;;19.10;55.06;98977.50;6225756;28;96320;-66
2022/10/16 01:45:07;;;;;;;;;20.00;18.00;;;;;19.13;54.97;98976.94;6224874;28;97213;-66
2022/10/16 01:48:14;;;;;;;;;17.40;17.00;;;;;19.17;55.34;98990.84;6214191;28;96715;-66
2022/10/16 01:51:20;;;;;;;;;17.75;15.50;;;;;19.05;55.23;98977.50;6224480;28;96318;-66
2022/10/16 01:54:28;;;;;;;;;15.40;15.00;;;;;19.14;54.99;98983.22;6224911;28;96872;-65
2022/10/16 01:57:36;;;;;;;;;19.00;19.00;;;;;19.15;55.23;98990.31;6227620;28;97065;-66
2022/10/16 02:00:45;;;;;;;;;19.00;18.00;;;;;19.15;55.54;98984.84;6219862;28;96835;-66
2022/10/16 02:03:54;;;;;;;;;17.60;17.00;;;;;19.17;54.69;98991.69;6225363;28;96363;-66
2022/10/16 02:06:57;;;;;;;;;17.00;16.00;;;;;19.10;55.17;98988.41;6209562;28;98332;-66
2022/10/16 02:10:01;;;;;;;;;19.40;17.40;;;;;19.04;55.33;98993.06;6221882;28;96602;-66
2022/10/16 02:13:10;;;;;;;;;18.00;17.00;;;;;19.04;55.82;98994.97;6210756;28;96249;-66
2022/10/16 02:16:15;;;;;;;;;17.00;15.00;;;;;19.08;56.04;99007.00;6213803;28;96911;-66
2022/10/16 02:19:21;;;;;;;;;15.00;14.00;;;;;19.06;55.30;98998.22;6228670;28;96244;-66
2022/10/16 02:22:30;;;;;;;;;16.40;16.00;;;;;19.05;55.80;99004.81;6215715;28;96830;-65
2022/10/16 02:25:38;;;;;;;;;16.00;14.60;;;;;19.04;55.58;99004.00;6216950;28;96648;-65
2022/10/16 02:28:47;;;;;;;;;16.40;15.00;;;;;19.06;56.26;98994.72;6231468;28;96344;-66
2022/10/16 02:31:56;;;;;;;;;19.75;18.25;;;;;19.07;55.82;98993.59;6231335;28;96288;-66
2022/10/16 02:35:01;;;;;;;;;18.00;16.00;;;;;19.07;56.53;98988.13;6230039;28;96396;-66
2022/10/16 02:38:06;;;;;;;;;24.60;23.00;;;;;19.08;55.71;98995.25;6230838;28;96313;-66
2022/10/16 02:41:10;;;;;;;;;21.40;20.00;;;;;19.06;55.91;98997.44;6234227;28;96231;-66
2022/10/16 02:44:13;;;;;;;;;22.00;19.50;;;;;19.03;55.98;98993.31;6234535;28;98544;-66
2022/10/16 02:47:18;;;;;;;;;21.40;18.00;;;;;19.00;55.89;98994.72;6228993;28;96523;-66
2022/10/16 02:50:22;;;;;;;;;21.40;19.60;;;;;18.97;55.97;98997.97;6236074;28;98557;-66
2022/10/16 02:53:25;;;;;;;;;20.00;19.25;;;;;18.97;55.94;98988.94;6247405;28;96244;-66
2022/10/16 02:56:29;;;;;;;;;20.20;19.00;;;;;18.92;55.96;98989.78;6212534;28;96328;-66
2022/10/16 02:59:33;;;;;;;;;21.00;19.50;;;;;18.92;55.92;98999.88;6209815;28;96621;-66
2022/10/16 03:02:37;;;;;;;;;21.60;19.60;;;;;18.90;55.46;99000.16;6198724;28;96695;-66
2022/10/16 03:05:41;;;;;;;;;20.60;19.00;;;;;18.91;55.17;99004.53;6211431;28;98169;-66
2022/10/16 03:08:44;;;;;;;;;20.20;18.60;;;;;18.89;55.65;99008.63;6229610;28;96117;-66
2022/10/16 03:11:47;;;;;;;;;22.00;18.50;;;;;18.87;55.91;99005.34;6213084;28;96333;-66
2022/10/16 03:14:50;;;;;;;;;21.75;19.00;;;;;18.86;55.53;98999.06;6231723;28;96448;-66
2022/10/16 03:17:55;;;;;;;;;20.40;18.20;;;;;18.83;55.20;98987.84;6229987;28;98636;-66
2022/10/16 03:20:59;;;;;;;;;21.00;18.00;;;;;18.82;56.08;98999.88;6215424;28;96664;-66
2022/10/16 03:24:02;;;;;;;;;17.80;17.80;;;;;18.76;56.17;98993.63;6228965;28;96273;-65
2022/10/16 03:27:05;;;;;;;;;20.00;19.00;;;;;18.73;56.46;99001.50;6221106;28;96267;-66
2022/10/16 03:30:10;;;;;;;;;22.60;21.60;;;;;18.68;56.13;98999.59;6216021;28;96405;-66
2022/10/16 03:33:15;;;;;;;;;21.75;19.75;;;;;18.64;56.33;99003.16;6226728;28;96979;-66
2022/10/16 03:36:18;;;;;;;;;22.50;20.00;;;;;18.60;56.36;99006.44;6235528;28;96365;-66
2022/10/16 03:39:21;;;;;;;;;19.00;17.00;;;;;18.55;56.40;99011.06;6226579;28;96359;-66
2022/10/16 03:42:25;;;;;;;;;20.20;18.60;;;;;18.52;56.37;99019.75;6226642;28;96718;-65
2022/10/16 03:45:28;;;;;;;;;19.80;19.00;;;;;18.49;56.54;99039.41;6236490;28;97084;-65
2022/10/16 03:48:33;;;;;;;;;16.50;16.50;;;;;18.45;56.73;99039.13;6217903;28;97177;-66
2022/10/16 03:51:37;;;;;;;;;18.50;17.00;;;;;18.40;56.62;99024.63;6211275;28;98425;-65
2022/10/16 03:54:40;;;;;;;;;19.00;18.00;;;;;18.41;56.25;99039.94;6235206;28;96506;-66
2022/10/16 03:57:44;;;;;;;;;17.00;17.00;;;;;18.36;56.21;99042.66;6218891;28;96864;-65
2022/10/16 04:00:48;;;;;;;;;24.20;20.00;;;;;18.33;55.85;99045.91;6236467;28;96883;-65
2022/10/16 04:03:53;;;;;;;;;21.00;19.33;;;;;18.28;56.00;99049.44;6225323;28;96652;-66
2022/10/16 04:06:56;;;;;;;;;18.75;16.75;;;;;18.21;56.37;99045.31;6235561;28;96352;-65
2022/10/16 04:09:59;;;;;;;;;19.00;18.00;;;;;18.15;56.46;99053.47;6225538;28;97092;-66
2022/10/16 04:13:02;;;;;;;;;18.00;18.00;;;;;17.65;56.91;98980.44;6214989;28;98787;-66
2022/10/16 04:16:06;;;;;;;;;18.60;17.40;;;;;18.13;57.16;99065.78;6205721;28;96812;-63
2022/10/16 04:19:12;;;;;;;;;19.20;17.60;;;;;18.09;57.52;99057.28;6214429;28;96333;-63
2022/10/16 04:22:15;;;;;;;;;17.25;16.25;;;;;18.09;57.48;99056.44;6214915;28;96298;-63
2022/10/16 04:25:19;;;;;;;;;19.00;18.00;;;;;18.09;57.68;99057.28;6188752;28;96636;-63
2022/10/16 04:28:23;;;;;;;;;17.00;16.00;;;;;18.12;57.81;99058.66;6214710;28;96146;-63
2022/10/16 04:31:26;;;;;;;;;17.60;15.80;;;;;18.12;57.64;99053.22;6213755;28;96830;-63
2022/10/16 04:34:31;;;;;;;;;18.60;16.40;;;;;18.14;57.67;99061.94;6218491;28;96446;-63
2022/10/16 04:37:34;;;;;;;;;16.80;15.80;;;;;18.16;57.35;99065.22;6216201;28;97186;-63
2022/10/16 04:40:37;;;;;;;;;15.00;15.00;;;;;18.15;57.30;99058.94;6213971;28;97538;-63
2022/10/16 04:43:41;;;;;;;;;17.40;16.00;;;;;18.14;57.32;99065.47;6194024;28;96603;-63
2022/10/16 04:46:44;;;;;;;;;15.00;14.00;;;;;18.08;57.56;99057.56;6210010;28;96707;-63
2022/10/16 04:49:49;;;;;;;;;16.00;15.00;;;;;18.02;57.37;99056.72;6215221;28;96246;-63
2022/10/16 04:52:52;;;;;;;;;18.50;15.50;;;;;18.02;57.47;99064.91;6192990;28;96262;-63
2022/10/16 04:55:57;;;;;;;;;14.80;14.20;;;;;18.03;56.92;99065.72;6211521;28;96847;-63
2022/10/16 04:59:00;;;;;;;;;14.80;14.40;;;;;18.06;56.75;99076.09;6212274;28;97234;-63
2022/10/16 05:02:04;;;;;;;;;15.00;15.00;;;;;18.02;56.62;99075.81;6213187;28;96639;-64
2022/10/16 05:05:09;;;;;;;;;15.20;14.00;;;;;18.05;56.54;99071.72;6213265;28;96820;-63
2022/10/16 05:08:14;;;;;;;;;18.00;16.00;;;;;18.00;56.86;99077.97;6194860;28;96671;-63
2022/10/16 05:11:17;;;;;;;;;17.00;16.00;;;;;17.96;56.89;99071.41;6220066;28;96239;-62
2022/10/16 05:14:20;;;;;;;;;17.00;16.00;;;;;17.96;56.85;99070.59;6194970;28;98472;-63
2022/10/16 05:17:24;;;;;;;;;15.00;14.20;;;;;17.96;56.67;99065.94;6194542;28;96229;-63
2022/10/16 05:20:29;;;;;;;;;18.00;17.00;;;;;17.96;56.68;99067.84;6212916;28;96836;-64
2022/10/16 05:23:32;;;;;;;;;17.20;15.20;;;;;17.98;56.49;99068.41;6212493;28;96449;-64
2022/10/16 05:26:36;;;;;;;;;16.00;15.00;;;;;17.96;56.26;99060.50;6213011;28;96420;-63
2022/10/16 05:29:39;;;;;;;;;16.00;14.50;;;;;18.09;56.24;99079.09;6212781;28;96817;-63
2022/10/16 05:32:47;;;;;;;;;17.00;16.00;;;;;18.09;56.20;99079.09;6197744;28;96431;-64
2022/10/16 05:35:52;;;;;;;;;17.00;16.00;;;;;18.13;56.17;99093.84;6193939;28;98815;-63
2022/10/16 05:38:55;;;;;;;;;16.40;16.00;;;;;18.15;56.24;99097.16;6216203;28;96253;-63
2022/10/16 05:41:59;;;;;;;;;20.00;18.00;;;;;18.17;56.44;99096.88;6226571;28;96284;-63
2022/10/16 05:45:02;;;;;;;;;17.00;16.80;;;;;18.15;56.73;99094.41;6198509;28;96681;-64
2022/10/16 05:48:06;;;;;;;;;17.20;16.20;;;;;18.24;56.74;99094.72;6229370;28;97034;-63
2022/10/16 05:51:14;;;;;;;;;15.00;14.60;;;;;18.26;56.83;99078.09;6216636;28;96449;-63
2022/10/16 05:54:17;;;;;;;;;16.60;16.00;;;;;18.40;56.74;99092.88;6216850;28;96220;-64
2022/10/16 05:57:20;;;;;;;;;19.00;18.00;;;;;18.46;56.71;99098.09;6198291;28;96676;-64
2022/10/16 06:00:23;;;;;;;;;18.00;16.60;;;;;18.51;56.52;99100.84;6216241;28;96315;-63
2022/10/16 06:03:27;;;;;;;;;18.20;18.00;;;;;18.59;56.18;99103.09;6190205;28;99034;-63
2022/10/16 06:06:32;;;;;;;;;17.00;17.00;;;;;18.71;56.22;99100.13;6220810;28;96222;-64
2022/10/16 06:09:35;;;;;;;;;18.40;18.00;;;;;18.84;55.70;99096.88;6216152;28;96337;-63
2022/10/16 06:12:39;;;;;;;;;17.40;16.60;;;;;18.99;54.88;99096.06;6197688;28;96644;-63
2022/10/16 06:15:44;;;;;;;;;19.00;17.40;;;;;19.15;55.47;99107.84;6219214;28;96398;-63
2022/10/16 06:18:48;;;;;;;;;18.00;17.00;;;;;19.30;54.89;99116.84;6217128;28;96606;-63
2022/10/16 06:21:52;;;;;;;;;19.00;17.00;;;;;19.51;54.69;99131.38;6227200;28;96388;-63
2022/10/16 06:24:56;;;;;;;;;17.60;15.00;;;;;19.77;53.19;99133.03;6225480;28;96340;-63
2022/10/16 06:27:59;;;;;;;;;18.00;16.00;;;;;20.20;52.90;99136.22;6230194;28;96442;-64
2022/10/16 06:31:04;;;;;;;;;19.00;18.00;;;;;20.78;51.21;99145.59;6209336;28;96631;-63
2022/10/16 06:34:11;;;;;;;;;16.50;16.25;;;;;21.32;49.82;99151.03;6199748;28;97052;-64
2022/10/16 06:37:16;;;;;;;;;17.60;16.20;;;;;21.95;47.39;99151.09;6201426;28;97088;-64
2022/10/16 06:40:19;;;;;;;;;17.00;14.25;;;;;22.72;43.87;99152.72;6197775;28;98337;-64
2022/10/16 06:43:22;;;;;;;;;15.40;14.60;;;;;23.30;42.47;99160.72;6215384;28;96582;-64
2022/10/16 06:46:27;;;;;;;;;15.40;14.80;;;;;24.42;40.71;99165.97;6217202;28;98738;-64
2022/10/16 06:49:30;;;;;;;;;13.00;12.20;;;;;26.15;37.46;99169.16;6219669;28;96334;-64
2022/10/16 06:52:35;;;;;;;;;14.00;14.00;;;;;27.53;35.30;99178.72;6220104;28;96487;-64
2022/10/16 06:55:39;;;;;;;;;13.80;13.80;;;;;28.38;32.80;99184.47;6215121;28;96305;-64
2022/10/16 06:58:42;;;;;;;;;12.20;10.20;;;;;29.01;31.25;99186.31;6208462;28;96381;-64
2022/10/16 07:01:46;;;;;;;;;14.50;14.00;;;;;28.92;31.62;99185.56;6220309;28;96503;-64
2022/10/16 07:04:49;;;;;;;;;15.00;14.00;;;;;28.46;31.33;99189.16;6216863;28;97686;-64
2022/10/16 07:07:54;;;;;;;;;13.20;13.20;;;;;28.01;32.30;99189.59;6193388;28;98399;-64
2022/10/16 07:11:01;;;;;;;;;13.40;13.40;;;;;27.68;32.90;99182.97;6213743;28;96421;-65
2022/10/16 07:14:05;;;;;;;;;14.75;13.75;;;;;27.71;33.32;99187.84;6219265;28;96377;-64
2022/10/16 07:17:08;;;;;;;;;13.00;13.00;;;;;27.87;33.32;99180.66;6202392;28;96306;-64
2022/10/16 07:20:11;;;;;;;;;16.40;15.20;;;;;27.82;33.34;99186.34;6221727;28;96260;-65
2022/10/16 07:23:16;;;;;;;;;14.00;12.60;;;;;27.65;33.43;99185.56;6228386;28;96499;-64
2022/10/16 07:26:20;;;;;;;;;15.20;15.00;;;;;28.26;32.53;99185.16;6220487;28;96591;-64
2022/10/16 07:29:24;;;;;;;;;13.00;12.00;;;;;28.46;32.49;99199.44;6198879;28;96385;-64
2022/10/16 07:32:27;;;;;;;;;16.00;15.60;;;;;29.74;31.21;99192.31;6202995;28;98480;-65
2022/10/16 07:35:31;;;;;;;;;14.60;13.00;;;;;32.43;26.67;99195.41;6206176;28;99840;-65
2022/10/16 07:38:36;;;;;;;;;15.00;14.00;;;;;33.31;25.88;99199.59;6205140;28;96374;-64
2022/10/16 07:41:39;;;;;;;;;13.40;12.00;;;;;33.31;25.84;99196.00;6214046;28;98395;-65
2022/10/16 07:44:42;;;;;;;;;12.50;11.50;;;;;32.70;26.72;99196.50;6215399;28;96404;-64
2022/10/16 07:47:46;;;;;;;;;15.00;13.00;;;;;31.90;27.78;99201.47;6215836;28;96572;-64
2022/10/16 07:50:49;;;;;;;;;19.80;18.40;;;;;31.05;29.35;99194.13;6197732;28;96573;-64
2022/10/16 07:53:54;;;;;;;;;20.40;19.00;;;;;30.63;30.21;99201.06;6211752;28;96347;-64
2022/10/16 07:56:58;;;;;;;;;20.00;18.60;;;;;30.20;30.72;99204.34;6245896;28;96312;-65
2022/10/16 08:00:01;;;;;;;;;18.00;17.00;;;;;29.76;31.35;99197.53;6244225;28;96438;-65
2022/10/16 08:03:14;;;;;;;;;21.00;20.60;;;;;29.30;31.42;99202.13;6257096;27;96490;-64
2022/10/16 08:06:17;;;;;;;;;21.00;19.80;;;;;29.04;32.27;99207.03;6245150;27;96271;-65
2022/10/16 08:09:28;;;;;;;;;20.40;19.00;;;;;29.00;32.90;99214.41;6247113;27;96929;-65
2022/10/16 08:12:31;;;;;;;;;22.00;21.00;;;;;29.09;33.23;99215.97;6245383;27;97497;-65
2022/10/16 08:15:35;;;;;;;;;22.60;21.00;;;;;28.98;33.70;99213.94;6244778;27;97438;-65
2022/10/16 08:18:39;;;;;;;;;24.00;21.00;;;;;28.82;33.56;99222.00;6253822;27;96282;-65
2022/10/16 08:21:42;;;;;;;;;22.00;21.75;;;;;28.76;33.54;99220.56;6254309;27;96274;-65
2022/10/16 08:24:47;;;;;;;;;22.60;22.00;;;;;28.68;33.96;99226.94;6253208;27;96323;-65
2022/10/16 08:27:51;;;;;;;;;23.00;21.00;;;;;28.96;32.96;99224.56;6253421;27;96333;-65
2022/10/16 08:30:56;;;;;;;;;25.00;21.40;;;;;29.04;32.48;99207.84;6254346;27;96280;-65
2022/10/16 08:33:59;;;;;;;;;24.00;23.00;;;;;29.99;31.87;99221.88;6236157;28;96793;-65
2022/10/16 08:37:03;;;;;;;;;20.33;20.00;;;;;32.18;29.45;99225.44;6250649;27;96233;-67
2022/10/16 08:40:18;;;;;;;;;23.40;22.00;;;;;35.20;25.20;99241.28;6231068;28;97738;-66
2022/10/16 08:43:42;;;;;;;;;24.00;22.00;;;;;35.65;23.82;99240.31;6238504;28;96226;-66
2022/10/16 08:47:00;;;;;;;;;19.75;18.50;;;;;35.67;23.31;99239.97;6247684;28;96950;-66
2022/10/16 08:50:12;;;;;;;;;23.00;20.50;;;;;36.67;22.81;99246.41;6252923;27;96350;-66
2022/10/16 08:53:22;;;;;;;;;23.75;20.00;;;;;36.73;23.00;99241.22;6246908;27;96220;-66
2022/10/16 08:56:27;;;;;;;;;19.00;18.00;;;;;36.31;22.88;99236.75;6229057;28;98381;-66
2022/10/16 08:59:30;;;;;;;;;19.40;18.00;;;;;37.18;22.58;99240.84;6226239;28;96430;-67
2022/10/16 09:02:38;;;;;;;;;17.00;16.00;;;;;37.98;21.59;99240.88;6244020;27;96240;-66
2022/10/16 09:06:06;;;;;;;;;12.00;12.00;;;;;37.40;20.32;99241.78;6244557;27;96268;-66
2022/10/16 09:09:31;;;;;;;;;14.60;13.60;;;;;37.26;20.45;99248.13;6243190;27;96901;-66
2022/10/16 09:12:43;;;;;;;;;11.60;11.00;;;;;36.61;20.84;99244.31;6255598;27;96334;-66
2022/10/16 09:15:56;;;;;;;;;11.00;11.00;;;;;35.69;22.33;99238.41;6248744;27;96506;-66
2022/10/16 09:19:10;;;;;;;;;14.00;13.00;;;;;34.79;23.37;99248.59;6250673;27;96345;-65
2022/10/16 09:22:16;;;;;;;;;13.60;13.00;;;;;33.73;24.21;99226.88;6243192;27;96322;-65
2022/10/16 09:25:22;;;;;;;;;14.80;14.00;;;;;33.26;25.06;99239.00;6232129;27;96749;-65
2022/10/16 09:28:27;;;;;;;;;14.50;14.00;;;;;33.07;25.46;99236.13;6256317;27;96334;-65
2022/10/16 09:31:30;;;;;;;;;13.00;12.80;;;;;33.04;25.91;99250.78;6245127;27;96295;-65
2022/10/16 09:34:36;;;;;;;;;12.25;11.25;;;;;33.18;25.85;99244.78;6249382;27;96292;-65
2022/10/16 09:37:41;;;;;;;;;13.00;13.00;;;;;33.20;25.56;99250.81;6242273;27;96699;-64
2022/10/16 09:40:45;;;;;;;;;12.00;12.00;;;;;33.35;25.15;99255.56;6245788;27;96432;-65
2022/10/16 09:43:57;;;;;;;;;10.25;10.25;;;;;33.71;24.92;99257.22;6244832;27;96569;-65
2022/10/16 09:47:04;;;;;;;;;10.00;10.00;;;;;34.27;23.38;99252.00;6226929;27;97659;-65
2022/10/16 09:50:23;;;;;;;;;10.25;10.00;;;;;34.67;22.73;99269.19;6247779;27;96347;-65
2022/10/16 09:53:38;;;;;;;;;11.00;11.00;;;;;34.20;22.50;99269.47;6239903;27;96755;-65
2022/10/16 09:56:45;;;;;;;;;11.00;10.00;;;;;33.76;23.06;99254.94;6229792;27;96605;-65
2022/10/16 09:59:51;;;;;;;;;11.00;10.00;;;;;33.72;23.64;99256.03;6244589;28;96263;-65
2022/10/16 10:02:56;;;;;;;;;11.00;10.00;;;;;34.26;22.96;99256.78;6238348;27;99053;-65
2022/10/16 10:05:59;;;;;;;;;10.40;10.40;;;;;34.77;22.67;99265.75;6254919;27;96629;-65
2022/10/16 10:09:14;;;;;;;;;11.60;10.60;;;;;34.52;22.62;99258.06;6240107;28;96087;-65
2022/10/16 10:12:21;;;;;;;;;10.75;9.75;;;;;34.03;23.00;99261.47;6245120;27;96316;-65
2022/10/16 10:15:42;;;;;;;;;11.40;10.80;;;;;33.53;23.37;99256.00;6251590;27;96666;-65
2022/10/16 10:18:45;;;;;;;;;12.00;11.40;;;;;32.95;24.29;99270.53;6240842;27;96914;-65
2022/10/16 10:21:50;;;;;;;;;9.00;9.00;;;;;32.59;24.96;99263.22;6244713;27;96307;-65
2022/10/16 10:24:57;;;;;;;;;11.00;10.00;;;;;32.28;24.82;99260.38;6244708;27;96291;-65
2022/10/16 10:28:19;;;;;;;;;10.40;10.00;;;;;32.17;24.96;99245.31;6255256;27;96238;-64
2022/10/16 10:31:31;;;;;;;;;11.00;10.00;;;;;32.60;24.71;99258.44;6248767;27;96830;-64
2022/10/16 10:34:47;;;;;;;;;9.75;9.00;;;;;33.04;24.14;99250.78;6214363;28;96854;-65
2022/10/16 10:38:18;;;;;;;;;10.60;10.60;;;;;32.82;24.03;99251.47;6246533;27;97406;-65
2022/10/16 10:41:35;;;;;;;;;9.00;9.00;;;;;32.70;24.80;99255.13;6256138;27;96350;-64
2022/10/16 10:44:56;;;;;;;;;10.00;9.00;;;;;32.50;25.09;99250.59;6228125;27;98841;-64
2022/10/16 10:48:17;;;;;;;;;11.00;10.60;;;;;32.24;26.00;99251.91;6249360;27;97206;-64
2022/10/16 10:51:25;;;;;;;;;11.00;10.50;;;;;32.27;25.43;99241.19;6243849;27;96371;-64
2022/10/16 10:54:36;;;;;;;;;11.00;10.00;;;;;32.28;25.36;99240.03;6244961;28;96443;-64
2022/10/16 10:57:52;;;;;;;;;9.20;9.00;;;;;32.35;25.59;99238.25;6244449;27;96361;-65
2022/10/16 11:01:02;;;;;;;;;10.00;10.00;;;;;32.60;25.40;99248.06;6245013;27;96583;-64
2022/10/16 11:04:27;;;;;;;;;10.00;9.00;;;;;32.95;24.63;99252.97;6260795;27;96126;-64
2022/10/16 11:07:35;;;;;;;;;9.00;9.00;;;;;33.13;24.45;99243.06;6241956;27;98526;-64
2022/10/16 11:10:47;;;;;;;;;11.50;11.00;;;;;33.38;24.35;99243.69;6232212;27;98559;-64
2022/10/16 11:13:59;;;;;;;;;9.80;9.00;;;;;33.23;24.42;99244.50;6245614;27;96281;-64
2022/10/16 11:17:09;;;;;;;;;13.60;11.00;;;;;32.97;24.31;99248.66;6247292;27;96504;-64
2022/10/16 11:20:19;;;;;;;;;11.00;10.60;;;;;32.27;25.13;99238.41;6244299;27;96876;-64
2022/10/16 11:23:28;;;;;;;;;12.00;10.00;;;;;31.97;25.96;99235.94;6244563;28;96406;-64
2022/10/16 11:26:36;;;;;;;;;9.20;9.20;;;;;31.57;26.03;99233.16;6246673;27;96321;-64
2022/10/16 11:29:48;;;;;;;;;9.00;9.00;;;;;31.24;26.79;99238.91;6250369;27;96288;-64
2022/10/16 11:33:05;;;;;;;;;11.00;9.67;;;;;30.90;26.98;99245.72;6249005;27;96390;-65
2022/10/16 11:36:16;;;;;;;;;11.00;9.00;;;;;30.61;28.02;99239.56;6245041;27;97084;-65
2022/10/16 11:39:22;;;;;;;;;9.20;9.00;;;;;30.32;28.00;99237.72;6247169;27;96185;-65
2022/10/16 11:42:33;;;;;;;;;10.80;9.00;;;;;30.01;28.22;99241.78;6249706;27;96270;-65
2022/10/16 11:45:43;;;;;;;;;10.40;10.00;;;;;29.77;29.05;99246.38;6252345;28;96236;-65
2022/10/16 11:48:51;;;;;;;;;8.80;8.80;;;;;29.45;29.13;99243.22;6242551;27;96464;-65
2022/10/16 11:52:06;;;;;;;;;10.00;10.00;;;;;29.17;29.76;99242.06;6246928;27;96521;-65
2022/10/16 11:55:17;;;;;;;;;9.20;9.00;;;;;28.83;30.41;99234.75;6247514;27;96474;-65
2022/10/16 11:58:27;;;;;;;;;10.00;10.00;;;;;28.56;31.02;99241.50;6237536;27;98543;-65
2022/10/16 12:01:38;;;;;;;;;9.00;9.00;;;;;28.31;31.32;99245.97;6256750;27;96769;-65
2022/10/16 12:04:47;;;;;;;;;9.00;9.00;;;;;28.18;31.08;99238.69;6253288;27;96848;-65
2022/10/16 12:08:02;;;;;;;;;10.00;10.00;;;;;27.98;31.41;99245.69;6251868;27;96326;-64
2022/10/16 12:11:23;;;;;;;;;9.00;9.00;;;;;27.83;31.78;99242.59;6247947;28;97278;-64
2022/10/16 12:14:39;;;;;;;;;11.80;10.40;;;;;27.62;32.78;99247.97;6251019;27;96822;-64
2022/10/16 12:18:02;;;;;;;;;11.00;10.00;;;;;27.39;32.79;99252.00;6248817;27;97463;-65
2022/10/16 12:21:07;;;;;;;;;10.50;9.75;;;;;27.24;33.03;99256.03;6258779;27;96067;-66
2022/10/16 12:24:28;;;;;;;;;11.00;9.60;;;;;27.17;32.76;99254.88;6246002;27;96273;-65
2022/10/16 12:27:33;;;;;;;;;10.40;10.00;;;;;27.05;33.05;99255.50;6249275;28;96843;-64
2022/10/16 12:30:38;;;;;;;;;10.00;9.60;;;;;27.04;33.60;99248.31;6256189;27;96297;-64
2022/10/16 12:33:43;;;;;;;;;10.00;10.00;;;;;27.35;33.17;99249.06;6257294;27;96350;-65
2022/10/16 12:36:48;;;;;;;;;9.00;9.00;;;;;27.86;33.64;99259.38;6225166;27;96716;-65
2022/10/16 12:39:55;;;;;;;;;10.00;9.00;;;;;28.53;31.88;99260.78;6252301;27;96394;-64
2022/10/16 12:42:58;;;;;;;;;9.00;9.00;;;;;28.66;31.63;99263.34;6253852;27;97007;-64
2022/10/16 12:46:05;;;;;;;;;10.00;9.00;;;;;28.79;31.39;99258.72;6253692;27;96601;-64
2022/10/16 12:49:25;;;;;;;;;11.00;9.00;;;;;29.04;30.77;99266.13;6248092;27;96645;-64
2022/10/16 12:52:35;;;;;;;;;9.50;9.50;;;;;29.06;30.41;99254.69;6253002;27;96294;-64
2022/10/16 12:55:53;;;;;;;;;9.00;8.00;;;;;29.06;30.41;99258.31;6256971;27;96207;-64
2022/10/16 12:59:13;;;;;;;;;9.50;9.00;;;;;28.79;30.92;99264.28;6240232;27;96431;-64
2022/10/16 13:02:47;;;;;;;;;10.00;8.40;;;;;28.60;31.16;99266.63;6251076;27;96237;-65
2022/10/16 13:06:07;;;;;;;;;8.80;8.20;;;;;28.44;31.53;99255.25;6244714;27;96398;-65
2022/10/16 13:09:27;;;;;;;;;8.00;8.00;;;;;28.29;32.03;99273.25;6250502;27;96230;-64
2022/10/16 13:12:53;;;;;;;;;8.75;8.00;;;;;28.15;32.16;99271.78;6230697;27;96263;-64
2022/10/16 13:16:14;;;;;;;;;7.80;7.00;;;;;27.96;32.05;99263.75;6252955;27;96235;-65
2022/10/16 13:19:25;;;;;;;;;8.00;8.00;;;;;27.89;32.26;99275.38;6245852;27;96417;-65
2022/10/16 13:22:38;;;;;;;;;9.25;9.00;;;;;27.70;32.96;99277.66;6224256;27;97381;-64
2022/10/16 13:25:56;;;;;;;;;8.25;8.25;;;;;27.44;33.62;99277.56;6257476;27;96349;-65
2022/10/16 13:29:02;;;;;;;;;7.00;7.00;;;;;27.19;33.73;99281.09;6254345;27;96588;-65
2022/10/16 13:32:11;;;;;;;;;9.00;8.00;;;;;27.12;33.79;99278.00;6252438;27;96387;-65
2022/10/16 13:35:24;;;;;;;;;9.00;8.00;;;;;26.96;34.25;99279.56;6248781;27;96289;-65
2022/10/16 13:38:28;;;;;;;;;7.60;7.00;;;;;26.84;34.57;99287.59;6252823;27;96308;-64
2022/10/16 13:41:32;;;;;;;;;10.00;9.00;;;;;26.77;34.95;99293.63;6250232;27;96285;-64
2022/10/16 13:44:42;;;;;;;;;7.60;7.00;;;;;26.60;35.60;99294.34;6248176;27;97102;-64
2022/10/16 13:47:45;;;;;;;;;7.00;7.00;;;;;26.56;35.63;99298.88;6246681;27;97400;-65
2022/10/16 13:50:59;;;;;;;;;7.00;7.00;;;;;26.38;36.34;99297.16;6230107;27;96766;-65
2022/10/16 13:54:03;;;;;;;;;9.20;8.20;;;;;26.29;36.69;99293.50;6246721;27;96292;-65
2022/10/16 13:57:07;;;;;;;;;9.00;8.40;;;;;26.20;36.85;99303.63;6241859;27;98309;-65
2022/10/16 14:00:31;;;;;;;;;9.00;8.00;;;;;26.12;37.36;99307.97;6247345;27;96986;-64
2022/10/16 14:03:36;;;;;;;;;9.67;7.00;;;;;25.96;37.70;99303.13;6251178;27;96295;-64
2022/10/16 14:06:43;;;;;;;;;9.00;8.00;;;;;25.86;38.20;99310.53;6256999;27;96869;-65
2022/10/16 14:09:51;;;;;;;;;7.00;7.00;;;;;25.71;38.25;99316.41;6247392;27;96332;-64
2022/10/16 14:13:00;;;;;;;;;10.00;8.00;;;;;25.64;38.46;99304.16;6237030;28;98580;-65
2022/10/16 14:16:08;;;;;;;;;8.00;8.00;;;;;25.53;38.67;99311.81;6243155;27;96892;-64
2022/10/16 14:19:19;;;;;;;;;7.00;7.00;;;;;25.45;38.79;99304.25;6241168;27;96536;-64
2022/10/16 14:22:30;;;;;;;;;7.00;7.00;;;;;25.35;39.29;99319.09;6255218;27;96836;-64
2022/10/16 14:25:34;;;;;;;;;8.40;7.60;;;;;25.25;39.63;99308.28;6249984;27;96423;-64